Time;durP1;ratioP1;P1;durP2;ratioP2;P2;SDS_P1;SDS_P2;PMS_P1;PMS_P2;Temp;Humidity;BMP_temperature;BMP_pressure;BME280_temperature;BME280_humidity;BME280_pressure;Samples;Min_cycle;Max_cycle;Signal;HPM_P1;HPM_P2
2023/12/01 00:01:34;;;;;;;16.87;8.90;;;;;;;;;;5061950;28;20458;-68
2023/12/01 00:04:01;;;;;;;15.80;7.87;;;;;;;;;;5078191;28;20427;-70
2023/12/01 00:06:45;;;;;;;15.10;7.80;;;;;;;;;;5081633;28;20533;-70
2023/12/01 00:09:12;;;;;;;15.60;8.20;;;;;;;;;;5096751;28;20434;-70
2023/12/01 00:11:38;;;;;;;13.60;7.60;;;;;;;;;;5096152;28;20427;-68
2023/12/01 00:14:05;;;;;;;12.77;7.33;;;;;;;;;;5077785;28;20422;-70
2023/12/01 00:16:31;;;;;;;14.87;8.07;;;;;;;;;;5078464;28;20423;-70
2023/12/01 00:18:58;;;;;;;15.60;7.87;;;;;;;;;;5096118;28;20486;-70
2023/12/01 00:21:25;;;;;;;17.67;8.13;;;;;;;;;;5078195;28;20469;-69
2023/12/01 00:23:52;;;;;;;14.67;8.07;;;;;;;;;;5078213;28;20419;-70
2023/12/01 00:26:18;;;;;;;16.27;8.37;;;;;;;;;;5096132;28;20771;-71
2023/12/01 00:28:53;;;;;;;16.50;8.60;;;;;;;;;;5096162;28;20449;-70
2023/12/01 00:31:20;;;;;;;15.10;7.87;;;;;;;;;;5061070;28;20507;-71
2023/12/01 00:33:46;;;;;;;15.03;7.87;;;;;;;;;;5078314;28;20413;-70
2023/12/01 00:36:13;;;;;;;13.17;7.57;;;;;;;;;;5061349;28;20496;-68
2023/12/01 00:38:58;;;;;;;14.37;7.93;;;;;;;;;;5078160;28;20400;-68
2023/12/01 00:41:24;;;;;;;13.10;7.27;;;;;;;;;;5095947;28;20433;-69
2023/12/01 00:43:52;;;;;;;14.33;7.40;;;;;;;;;;5061528;28;20471;-70
2023/12/01 00:46:18;;;;;;;12.73;7.37;;;;;;;;;;5077336;28;20463;-70
2023/12/01 00:48:45;;;;;;;12.93;7.53;;;;;;;;;;5074266;28;20505;-70
2023/12/01 00:51:17;;;;;;;12.20;7.00;;;;;;;;;;5074322;28;20806;-69
2023/12/01 00:53:44;;;;;;;11.70;6.47;;;;;;;;;;5057738;28;20440;-70
2023/12/01 00:56:11;;;;;;;14.20;7.17;;;;;;;;;;5058376;28;20428;-69
2023/12/01 00:58:38;;;;;;;16.67;7.70;;;;;;;;;;5073957;28;20449;-70
2023/12/01 01:01:05;;;;;;;17.30;8.77;;;;;;;;;;5074082;28;20407;-70
2023/12/01 01:03:32;;;;;;;17.37;9.50;;;;;;;;;;5057488;28;20430;-68
2023/12/01 01:06:00;;;;;;;14.03;8.60;;;;;;;;;;5073741;28;20472;-70
2023/12/01 01:08:30;;;;;;;12.97;7.50;;;;;;;;;;5057702;28;20447;-71
2023/12/01 01:10:56;;;;;;;16.27;8.90;;;;;;;;;;5074332;28;20444;-71
2023/12/01 01:49:09;;;;;;;13.90;6.33;;;;;;;;;;5087150;28;20450;-69
2023/12/01 01:51:36;;;;;;;14.27;6.97;;;;;;;;;;5076863;28;20898;-68
2023/12/01 01:54:03;;;;;;;14.50;7.43;;;;;;;;;;5060616;28;20806;-68
2023/12/01 01:56:30;;;;;;;12.60;7.23;;;;;;;;;;5059827;28;20479;-68
2023/12/01 01:58:57;;;;;;;14.80;7.47;;;;;;;;;;5059647;28;20430;-68
2023/12/01 02:01:25;;;;;;;12.83;6.90;;;;;;;;;;5093140;28;20912;-68
2023/12/01 02:04:14;;;;;;;11.93;6.73;;;;;;;;;;5076219;28;20525;-68
2023/12/01 02:07:41;;;;;;;14.47;7.20;;;;;;;;;;5091798;28;20438;-70
2023/12/01 02:10:53;;;;;;;13.87;7.10;;;;;;;;;;5071009;28;20864;-68
2023/12/01 02:13:59;;;;;;;15.03;7.13;;;;;;;;;;5064344;28;20469;-70
2023/12/01 02:20:52;;;;;;;13.67;6.93;;;;;;;;;;5093982;28;20451;-70
2023/12/01 02:24:00;;;;;;;16.97;7.80;;;;;;;;;;5078412;28;20442;-70
2023/12/01 02:26:54;;;;;;;13.70;6.67;;;;;;;;;;5061764;28;20442;-70
2023/12/01 02:30:09;;;;;;;13.27;6.80;;;;;;;;;;5063817;28;20435;-70
2023/12/01 02:32:57;;;;;;;12.87;6.70;;;;;;;;;;5061922;28;20432;-70
2023/12/01 02:36:06;;;;;;;13.83;6.97;;;;;;;;;;5078473;28;20749;-70
2023/12/01 02:42:37;;;;;;;11.53;6.43;;;;;;;;;;5094155;28;20728;-68
2023/12/01 02:45:51;;;;;;;12.13;7.13;;;;;;;;;;5075372;28;20516;-68
2023/12/01 02:52:14;;;;;;;12.47;6.50;;;;;;;;;;5059291;28;20428;-68
2023/12/01 02:55:00;;;;;;;13.23;7.03;;;;;;;;;;5071582;28;20428;-69
2023/12/01 02:57:59;;;;;;;14.03;7.10;;;;;;;;;;5072074;28;20534;-68
2023/12/01 03:04:11;;;;;;;12.30;6.10;;;;;;;;;;5059565;28;20437;-70
2023/12/01 03:06:58;;;;;;;13.63;7.37;;;;;;;;;;5057644;28;20452;-70
2023/12/01 03:10:08;;;;;;;15.37;7.33;;;;;;;;;;5072825;28;20447;-70
2023/12/01 03:13:13;;;;;;;18.27;7.63;;;;;;;;;;5073029;28;20368;-70
2023/12/01 03:15:57;;;;;;;14.63;7.67;;;;;;;;;;5089838;28;20725;-70
2023/12/01 03:18:56;;;;;;;;;;;;;;;;;;;;;
2023/12/01 03:21:50;;;;;;;17.40;8.80;;;;;;;;;;5051988;28;20435;-70
2023/12/01 03:25:12;;;;;;;17.27;7.70;;;;;;;;;;5062076;28;20425;-70
2023/12/01 03:28:31;;;;;;;16.27;8.13;;;;;;;;;;5070549;28;20439;-70
2023/12/01 03:31:26;;;;;;;16.37;7.70;;;;;;;;;;5057953;28;20517;-70
2023/12/01 03:33:53;;;;;;;19.43;9.10;;;;;;;;;;5055427;28;20452;-70
2023/12/01 03:36:21;;;;;;;18.37;8.83;;;;;;;;;;5072723;28;20428;-70
2023/12/01 03:38:48;;;;;;;19.27;9.27;;;;;;;;;;5072113;28;20539;-70
2023/12/01 03:41:15;;;;;;;20.03;8.20;;;;;;;;;;5073160;28;20833;-70
2023/12/01 03:43:42;;;;;;;21.17;9.90;;;;;;;;;;5071953;28;20517;-70
2023/12/01 03:46:08;;;;;;;24.60;10.83;;;;;;;;;;5055189;28;20511;-70
2023/12/01 03:48:52;;;;;;;18.73;7.83;;;;;;;;;;5086698;28;20450;-70
2023/12/01 03:51:19;;;;;;;24.10;11.30;;;;;;;;;;5062335;28;20863;-70
2023/12/01 03:54:03;;;;;;;21.07;10.47;;;;;;;;;;5081855;28;20521;-69
2023/12/01 03:56:30;;;;;;;22.30;10.67;;;;;;;;;;5078570;28;20431;-69
2023/12/01 03:58:57;;;;;;;26.83;10.87;;;;;;;;;;5078859;28;20423;-71
2023/12/01 04:01:25;;;;;;;23.67;10.80;;;;;;;;;;5079333;28;20442;-71
2023/12/01 04:03:53;;;;;;;19.77;8.43;;;;;;;;;;5079003;28;20439;-70
2023/12/01 04:06:20;;;;;;;19.30;8.37;;;;;;;;;;5078370;28;20467;-70
2023/12/01 04:08:46;;;;;;;21.90;8.50;;;;;;;;;;5097032;28;20428;-70
2023/12/01 04:11:13;;;;;;;21.57;10.30;;;;;;;;;;5096438;28;20768;-69
2023/12/01 04:13:40;;;;;;;18.80;8.47;;;;;;;;;;5074067;28;20915;-68
2023/12/01 04:16:08;;;;;;;12.57;6.23;;;;;;;;;;5075762;28;20783;-70
2023/12/01 04:18:35;;;;;;;28.90;11.87;;;;;;;;;;5075503;28;20424;-71
2023/12/01 04:21:08;;;;;;;17.57;8.37;;;;;;;;;;5076515;28;20435;-70
2023/12/01 04:23:35;;;;;;;30.93;11.80;;;;;;;;;;5075434;28;20501;-70
2023/12/01 04:26:02;;;;;;;29.50;12.10;;;;;;;;;;5074410;28;20471;-70
2023/12/01 04:28:29;;;;;;;29.50;11.73;;;;;;;;;;5058354;28;20433;-70
2023/12/01 04:30:55;;;;;;;30.30;12.27;;;;;;;;;;5058152;28;20408;-70
2023/12/01 04:33:33;;;;;;;25.53;11.43;;;;;;;;;;5058904;28;20879;-70
2023/12/01 04:35:59;;;;;;;26.93;11.30;;;;;;;;;;5074478;28;20467;-70
2023/12/01 04:38:26;;;;;;;27.10;11.63;;;;;;;;;;5074690;28;20448;-70
2023/12/01 04:40:54;;;;;;;27.27;11.27;;;;;;;;;;5075696;28;20417;-70
2023/12/01 04:43:21;;;;;;;31.37;12.53;;;;;;;;;;5041240;28;20436;-70
2023/12/01 04:45:48;;;;;;;28.53;12.47;;;;;;;;;;5041314;28;20765;-69
2023/12/01 04:48:14;;;;;;;29.20;11.90;;;;;;;;;;5075298;28;20456;-69
2023/12/01 04:50:47;;;;;;;27.50;12.03;;;;;;;;;;5073660;28;20764;-70
2023/12/01 04:53:14;;;;;;;31.40;13.90;;;;;;;;;;5074433;28;20902;-70
2023/12/01 04:55:41;;;;;;;30.27;13.43;;;;;;;;;;5057443;28;20531;-70
2023/12/01 04:58:08;;;;;;;26.30;11.17;;;;;;;;;;5073450;28;20435;-70
2023/12/01 05:00:34;;;;;;;27.13;11.10;;;;;;;;;;5057717;28;20408;-70
2023/12/01 05:03:04;;;;;;;26.23;12.17;;;;;;;;;;5075579;28;20486;-70
2023/12/01 05:05:35;;;;;;;29.13;11.43;;;;;;;;;;5074192;28;20769;-70
2023/12/01 05:08:04;;;;;;;23.93;11.27;;;;;;;;;;5058306;28;20420;-70
2023/12/01 05:10:32;;;;;;;32.93;11.43;;;;;;;;;;5057151;28;20507;-71
2023/12/01 05:13:01;;;;;;;21.73;8.53;;;;;;;;;;5040786;28;20752;-70
2023/12/01 05:15:45;;;;;;;29.33;10.50;;;;;;;;;;5059753;28;20391;-70
2023/12/01 05:18:12;;;;;;;32.93;12.97;;;;;;;;;;5057007;28;20444;-69
2023/12/01 05:20:56;;;;;;;33.97;12.77;;;;;;;;;;5075324;28;20409;-69
2023/12/01 05:23:22;;;;;;;35.37;12.77;;;;;;;;;;5057853;28;20427;-67
2023/12/01 05:26:06;;;;;;;32.40;12.60;;;;;;;;;;5075047;28;20590;-67
2023/12/01 05:28:33;;;;;;;33.43;16.50;;;;;;;;;;5056806;28;20412;-69
2023/12/01 05:31:00;;;;;;;32.93;13.93;;;;;;;;;;5073092;28;20435;-71
2023/12/01 05:33:27;;;;;;;32.47;13.10;;;;;;;;;;5073254;28;20483;-68
2023/12/01 05:35:53;;;;;;;24.97;11.73;;;;;;;;;;5056823;28;20509;-69
2023/12/01 05:38:20;;;;;;;32.27;13.30;;;;;;;;;;5057008;28;20850;-69
2023/12/01 05:40:47;;;;;;;36.70;13.53;;;;;;;;;;5056938;28;20432;-69
2023/12/01 05:43:16;;;;;;;35.90;14.27;;;;;;;;;;5074201;28;20424;-69
2023/12/01 05:45:43;;;;;;;39.50;14.30;;;;;;;;;;5057543;28;20514;-69
2023/12/01 05:48:10;;;;;;;34.60;12.90;;;;;;;;;;5073347;28;20555;-69
2023/12/01 05:50:37;;;;;;;33.60;14.37;;;;;;;;;;5057039;28;20487;-69
2023/12/01 05:53:22;;;;;;;27.20;12.00;;;;;;;;;;5073561;28;20447;-69
2023/12/01 05:55:49;;;;;;;32.47;12.27;;;;;;;;;;5056807;28;20483;-69
2023/12/01 05:58:33;;;;;;;36.47;14.37;;;;;;;;;;5074289;28;20431;-69
2023/12/01 06:01:00;;;;;;;29.17;12.17;;;;;;;;;;5056306;28;20753;-69
2023/12/01 06:03:28;;;;;;;23.77;9.73;;;;;;;;;;5072225;28;20438;-69
2023/12/01 06:05:55;;;;;;;39.60;15.60;;;;;;;;;;5055799;28;20558;-71
2023/12/01 06:08:21;;;;;;;30.23;13.50;;;;;;;;;;5073361;28;20432;-71
2023/12/01 06:10:48;;;;;;;26.57;10.87;;;;;;;;;;5039477;28;20486;-71
2023/12/01 06:13:16;;;;;;;33.10;14.20;;;;;;;;;;5056650;28;20424;-71
2023/12/01 06:15:43;;;;;;;28.00;11.17;;;;;;;;;;5039605;28;20436;-71
2023/12/01 06:18:29;;;;;;;32.17;13.17;;;;;;;;;;5055415;28;20412;-71
2023/12/01 06:20:58;;;;;;;32.30;14.60;;;;;;;;;;5039540;28;20501;-69
2023/12/01 06:23:25;;;;;;;32.67;14.17;;;;;;;;;;5072708;28;20436;-71
2023/12/01 06:25:52;;;;;;;30.63;12.80;;;;;;;;;;5056061;28;20452;-72
2023/12/01 06:28:19;;;;;;;35.33;13.83;;;;;;;;;;5056105;28;20428;-71
2023/12/01 06:30:46;;;;;;;32.10;12.97;;;;;;;;;;5056093;28;20405;-70
2023/12/01 06:33:13;;;;;;;38.40;16.83;;;;;;;;;;5055974;28;20421;-71
2023/12/01 06:35:40;;;;;;;39.03;16.10;;;;;;;;;;5072478;28;20941;-71
2023/12/01 06:38:07;;;;;;;38.57;16.47;;;;;;;;;;5055884;28;20433;-70
2023/12/01 06:40:34;;;;;;;30.37;12.13;;;;;;;;;;5072597;28;20519;-71
2023/12/01 06:43:09;;;;;;;37.17;15.10;;;;;;;;;;5039353;28;20451;-70
2023/12/01 06:45:40;;;;;;;31.07;11.87;;;;;;;;;;5056116;28;20903;-68
2023/12/01 06:48:07;;;;;;;34.30;13.07;;;;;;;;;;5052119;28;20457;-69
2023/12/01 06:50:34;;;;;;;31.57;13.13;;;;;;;;;;5052906;28;20758;-68
2023/12/01 06:53:01;;;;;;;27.00;10.37;;;;;;;;;;5069069;28;20440;-68
2023/12/01 06:55:28;;;;;;;30.13;12.30;;;;;;;;;;5052554;28;20567;-68
2023/12/01 06:57:55;;;;;;;36.03;14.37;;;;;;;;;;5052030;28;20527;-70
2023/12/01 07:00:29;;;;;;;30.93;13.07;;;;;;;;;;5069293;28;20433;-69
2023/12/01 07:02:59;;;;;;;33.13;14.10;;;;;;;;;;5052724;28;20494;-70
2023/12/01 07:05:26;;;;;;;40.03;15.23;;;;;;;;;;5053579;28;20757;-70
2023/12/01 07:07:54;;;;;;;30.10;13.00;;;;;;;;;;5068998;28;20478;-68
2023/12/01 07:10:24;;;;;;;37.43;14.70;;;;;;;;;;5036035;28;20578;-69
2023/12/01 07:12:52;;;;;;;36.00;14.83;;;;;;;;;;5052476;28;20590;-69
2023/12/01 07:15:22;;;;;;;35.77;14.70;;;;;;;;;;5036254;28;20433;-69
2023/12/01 07:17:53;;;;;;;25.13;8.73;;;;;;;;;;5068872;28;20425;-69
2023/12/01 07:20:22;;;;;;;28.83;12.37;;;;;;;;;;5035613;28;20531;-69
2023/12/01 07:22:53;;;;;;;28.13;10.70;;;;;;;;;;5072256;28;20430;-69
2023/12/01 07:25:29;;;;;;;20.43;7.90;;;;;;;;;;5040443;28;20536;-69
2023/12/01 07:28:01;;;;;;;30.33;13.63;;;;;;;;;;5055944;28;20859;-69
2023/12/01 07:30:28;;;;;;;24.33;10.10;;;;;;;;;;5055758;28;20428;-70
2023/12/01 07:32:56;;;;;;;25.87;9.33;;;;;;;;;;5072530;28;20467;-69
2023/12/01 07:35:25;;;;;;;33.93;13.27;;;;;;;;;;5039794;28;20444;-69
2023/12/01 07:37:53;;;;;;;33.43;13.80;;;;;;;;;;5071822;28;20425;-70
2023/12/01 07:40:23;;;;;;;32.03;13.00;;;;;;;;;;5055816;28;20429;-69
2023/12/01 07:42:56;;;;;;;18.63;7.30;;;;;;;;;;5039602;28;20842;-70
2023/12/01 07:45:26;;;;;;;27.67;10.90;;;;;;;;;;5055662;28;20503;-70
2023/12/01 07:47:55;;;;;;;25.83;12.00;;;;;;;;;;5041645;28;20465;-70
2023/12/01 07:50:23;;;;;;;36.60;14.73;;;;;;;;;;5043569;28;20498;-70
2023/12/01 07:52:52;;;;;;;36.60;15.00;;;;;;;;;;5075460;28;20455;-69
2023/12/01 07:55:20;;;;;;;38.77;13.97;;;;;;;;;;5042861;28;20745;-69
2023/12/01 07:57:48;;;;;;;35.07;15.10;;;;;;;;;;5075889;28;20428;-71
2023/12/01 08:00:16;;;;;;;37.70;14.23;;;;;;;;;;5076658;28;20411;-70
2023/12/01 08:06:43;;;;;;;31.17;13.80;;;;;;;;;;5076442;28;20957;-70
2023/12/01 08:09:16;;;;;;;38.03;15.30;;;;;;;;;;5058680;28;20775;-70
2023/12/01 08:11:44;;;;;;;32.70;14.17;;;;;;;;;;5076176;28;20447;-69
2023/12/01 08:14:12;;;;;;;31.87;14.13;;;;;;;;;;5075627;28;20965;-70
2023/12/01 08:16:42;;;;;;;14.87;7.27;;;;;;;;;;5075078;28;20439;-69
2023/12/01 08:19:12;;;;;;;26.50;11.87;;;;;;;;;;5058430;28;20876;-68
2023/12/01 08:21:39;;;;;;;28.33;13.43;;;;;;;;;;5059005;28;20420;-68
2023/12/01 08:24:07;;;;;;;35.47;14.80;;;;;;;;;;5074772;28;20451;-69
2023/12/01 08:26:34;;;;;;;33.70;13.73;;;;;;;;;;5075233;28;20452;-69
2023/12/01 08:29:03;;;;;;;33.03;14.30;;;;;;;;;;5058362;28;20440;-69
2023/12/01 08:31:30;;;;;;;28.93;13.37;;;;;;;;;;5041552;28;20431;-69
2023/12/01 08:34:18;;;;;;;30.27;12.10;;;;;;;;;;5060539;28;20385;-68
2023/12/01 08:36:52;;;;;;;31.43;13.67;;;;;;;;;;5074967;28;20481;-67
2023/12/01 08:39:23;;;;;;;29.23;14.00;;;;;;;;;;5058960;28;20405;-68
2023/12/01 08:41:53;;;;;;;27.73;13.17;;;;;;;;;;5058247;28;20508;-68
2023/12/01 08:44:20;;;;;;;28.27;13.20;;;;;;;;;;5076311;28;20466;-68
2023/12/01 08:46:49;;;;;;;30.87;14.47;;;;;;;;;;5075410;28;20448;-68
2023/12/01 08:49:19;;;;;;;26.83;12.50;;;;;;;;;;5074909;28;20460;-68
2023/12/01 08:52:07;;;;;;;28.53;13.47;;;;;;;;;;5075068;28;20494;-69
2023/12/01 08:54:39;;;;;;;24.40;11.87;;;;;;;;;;5042473;28;20779;-67
2023/12/01 08:57:06;;;;;;;26.73;12.33;;;;;;;;;;5057697;28;20425;-68
2023/12/01 08:59:33;;;;;;;28.03;12.63;;;;;;;;;;5075611;28;20936;-66
2023/12/01 09:02:00;;;;;;;25.10;12.30;;;;;;;;;;5075794;28;20508;-68
2023/12/01 09:04:27;;;;;;;17.87;9.57;;;;;;;;;;5074698;28;20520;-68
2023/12/01 09:06:56;;;;;;;21.73;11.57;;;;;;;;;;5058545;28;20505;-68
2023/12/01 09:09:23;;;;;;;22.60;10.33;;;;;;;;;;5075706;28;20437;-68
2023/12/01 09:11:51;;;;;;;22.77;11.47;;;;;;;;;;5075135;28;20432;-68
2023/12/01 09:14:18;;;;;;;21.50;11.10;;;;;;;;;;5076179;28;20504;-69
2023/12/01 09:16:45;;;;;;;19.33;10.37;;;;;;;;;;5041607;28;20919;-68
2023/12/01 09:19:13;;;;;;;22.00;11.13;;;;;;;;;;5075110;28;20436;-68
2023/12/01 09:21:40;;;;;;;21.17;11.13;;;;;;;;;;5074827;28;20478;-68
2023/12/01 09:24:07;;;;;;;19.83;10.03;;;;;;;;;;5074338;28;20511;-68
2023/12/01 09:26:37;;;;;;;17.83;9.13;;;;;;;;;;5075564;28;20460;-68
2023/12/01 09:29:05;;;;;;;18.37;10.27;;;;;;;;;;5075322;28;20523;-68
2023/12/01 09:31:32;;;;;;;17.70;9.77;;;;;;;;;;5057682;28;20447;-68
2023/12/01 09:33:59;;;;;;;15.13;8.13;;;;;;;;;;5074498;28;20415;-68
2023/12/01 09:36:26;;;;;;;16.17;9.97;;;;;;;;;;5073801;28;20780;-69
2023/12/01 09:38:54;;;;;;;15.30;8.30;;;;;;;;;;5074595;28;20414;-68
2023/12/01 09:41:21;;;;;;;17.57;8.77;;;;;;;;;;5057090;28;20432;-67
2023/12/01 09:43:48;;;;;;;13.33;7.83;;;;;;;;;;5057486;28;20755;-68
2023/12/01 09:46:21;;;;;;;13.73;7.53;;;;;;;;;;5073446;28;20413;-66
2023/12/01 09:48:48;;;;;;;14.33;7.77;;;;;;;;;;5073124;28;20459;-67
2023/12/01 09:51:15;;;;;;;14.97;8.70;;;;;;;;;;5073103;28;20511;-67
2023/12/01 09:53:42;;;;;;;12.33;7.50;;;;;;;;;;5056317;28;20990;-67
2023/12/01 09:56:10;;;;;;;12.03;7.30;;;;;;;;;;5073202;28;20500;-67
2023/12/01 09:58:37;;;;;;;13.50;7.70;;;;;;;;;;5073117;28;20439;-67
2023/12/01 10:01:04;;;;;;;11.23;7.00;;;;;;;;;;5072898;28;20482;-67
2023/12/01 10:03:31;;;;;;;11.53;6.43;;;;;;;;;;5073923;28;20466;-67
2023/12/01 10:05:59;;;;;;;9.60;5.97;;;;;;;;;;5072911;28;20437;-67
2023/12/01 10:08:32;;;;;;;12.43;7.13;;;;;;;;;;5056207;28;20499;-67
2023/12/01 10:11:27;;;;;;;12.60;6.63;;;;;;;;;;5058055;28;20202;-67
2023/12/01 10:22:05;;;;;;;11.97;6.47;;;;;;;;;;5074101;28;20178;-68
2023/12/01 10:24:34;;;;;;;7.57;4.77;;;;;;;;;;5072642;28;20657;-68
2023/12/01 10:27:03;;;;;;;10.40;5.43;;;;;;;;;;5056600;28;20200;-68
2023/12/01 10:29:32;;;;;;;8.93;4.87;;;;;;;;;;5073059;28;20244;-68
2023/12/01 10:32:17;;;;;;;10.37;4.77;;;;;;;;;;5074610;28;20165;-68
2023/12/01 10:34:54;;;;;;;8.43;5.27;;;;;;;;;;5056757;28;20257;-68
2023/12/01 10:37:22;;;;;;;8.70;5.30;;;;;;;;;;5058052;28;20208;-68
2023/12/01 10:39:51;;;;;;;6.80;4.33;;;;;;;;;;5075462;28;20182;-69
2023/12/01 10:42:18;;;;;;;9.23;4.90;;;;;;;;;;5073975;28;20186;-68
2023/12/01 10:44:45;;;;;;;10.20;6.00;;;;;;;;;;5057347;28;20236;-68
2023/12/01 10:47:12;;;;;;;8.70;4.70;;;;;;;;;;5073622;28;20205;-68
2023/12/01 10:49:40;;;;;;;10.30;6.00;;;;;;;;;;5057327;28;20467;-68
2023/12/01 10:52:09;;;;;;;11.50;5.87;;;;;;;;;;5074786;28;20200;-67
2023/12/01 10:54:36;;;;;;;9.20;4.80;;;;;;;;;;5041096;28;20727;-67
2023/12/01 10:57:04;;;;;;;10.33;5.50;;;;;;;;;;5075272;28;20489;-67
2023/12/01 10:59:31;;;;;;;9.77;5.57;;;;;;;;;;5061010;28;20526;-67
2023/12/01 11:02:00;;;;;;;9.57;5.93;;;;;;;;;;5078258;28;20492;-69
2023/12/01 11:04:28;;;;;;;10.57;6.07;;;;;;;;;;5077575;28;20539;-70
2023/12/01 11:06:59;;;;;;;8.53;5.53;;;;;;;;;;5078911;28;20432;-69
2023/12/01 11:09:40;;;;;;;10.80;5.20;;;;;;;;;;5078811;28;20809;-68
2023/12/01 11:12:33;;;;;;;8.53;5.00;;;;;;;;;;5077126;28;20512;-69
2023/12/01 11:15:06;;;;;;;11.20;5.03;;;;;;;;;;5075657;28;20436;-68
2023/12/01 11:17:33;;;;;;;11.90;6.03;;;;;;;;;;5076730;28;20869;-68
2023/12/01 11:20:00;;;;;;;10.27;5.83;;;;;;;;;;5077710;28;20466;-69
2023/12/01 11:22:30;;;;;;;9.43;5.53;;;;;;;;;;5077856;28;20769;-68
2023/12/01 11:24:58;;;;;;;12.67;6.40;;;;;;;;;;5045948;28;20440;-69
2023/12/01 11:27:25;;;;;;;10.20;5.60;;;;;;;;;;5078830;28;20459;-69
2023/12/01 11:30:00;;;;;;;11.10;5.60;;;;;;;;;;5079686;28;20911;-69
2023/12/01 11:32:32;;;;;;;9.77;5.20;;;;;;;;;;5062153;28;20438;-68
2023/12/01 11:35:08;;;;;;;10.17;5.57;;;;;;;;;;5060519;28;20471;-68
2023/12/01 11:38:00;;;;;;;12.13;6.23;;;;;;;;;;5059251;28;20440;-68
2023/12/01 11:40:28;;;;;;;11.53;5.27;;;;;;;;;;5077614;28;20393;-68
2023/12/01 11:43:05;;;;;;;12.10;5.80;;;;;;;;;;5076436;28;20423;-66
2023/12/01 11:45:47;;;;;;;7.93;4.10;;;;;;;;;;5061136;28;20946;-68
2023/12/01 11:48:17;;;;;;;9.63;5.47;;;;;;;;;;5050691;28;20798;-67
2023/12/01 11:50:50;;;;;;;8.77;5.13;;;;;;;;;;5035936;28;20446;-67
2023/12/01 11:53:20;;;;;;;9.27;4.93;;;;;;;;;;5052433;28;20457;-67
2023/12/01 11:55:50;;;;;;;8.17;4.80;;;;;;;;;;5053168;28;20539;-67
2023/12/01 11:58:22;;;;;;;8.23;4.77;;;;;;;;;;5052866;28;20442;-67
2023/12/01 12:00:53;;;;;;;8.30;4.87;;;;;;;;;;5005690;28;20469;-67
2023/12/01 12:03:25;;;;;;;9.20;4.53;;;;;;;;;;5042767;28;20473;-68
2023/12/01 12:05:52;;;;;;;8.13;4.40;;;;;;;;;;5027248;28;20442;-67
2023/12/01 12:08:20;;;;;;;9.20;4.40;;;;;;;;;;5025334;28;20464;-68
2023/12/01 12:10:47;;;;;;;8.70;4.87;;;;;;;;;;5043370;28;20530;-67
2023/12/01 12:13:14;;;;;;;8.27;4.67;;;;;;;;;;5028883;28;20440;-68
2023/12/01 12:15:41;;;;;;;7.83;4.30;;;;;;;;;;5042442;28;20431;-66
2023/12/01 12:18:08;;;;;;;8.67;4.73;;;;;;;;;;5042009;28;20429;-68
2023/12/01 12:20:35;;;;;;;9.57;5.00;;;;;;;;;;5042758;28;20446;-69
2023/12/01 12:23:04;;;;;;;8.73;4.40;;;;;;;;;;5025959;28;20418;-67
2023/12/01 12:25:37;;;;;;;6.43;4.03;;;;;;;;;;5027972;28;20442;-68
2023/12/01 12:28:10;;;;;;;7.50;4.40;;;;;;;;;;5025800;28;20556;-69
2023/12/01 12:30:39;;;;;;;6.53;3.73;;;;;;;;;;5025803;28;20515;-68
2023/12/01 12:33:06;;;;;;;6.53;3.90;;;;;;;;;;5025769;28;20477;-66
2023/12/01 12:35:33;;;;;;;7.10;4.03;;;;;;;;;;5042305;28;20439;-69
2023/12/01 12:38:17;;;;;;;7.90;4.43;;;;;;;;;;5041005;28;20943;-68
2023/12/01 12:40:44;;;;;;;6.67;3.70;;;;;;;;;;5042719;28;20433;-69
2023/12/01 12:43:11;;;;;;;6.73;3.87;;;;;;;;;;5027257;28;20194;-68
2023/12/01 12:45:43;;;;;;;7.03;3.60;;;;;;;;;;5042235;28;20461;-69
2023/12/01 12:48:10;;;;;;;6.23;3.53;;;;;;;;;;5026411;28;20227;-70
2023/12/01 12:50:40;;;;;;;8.27;4.67;;;;;;;;;;5043292;28;20431;-69
2023/12/01 12:53:07;;;;;;;10.27;4.87;;;;;;;;;;5028193;28;20426;-68
2023/12/01 12:55:34;;;;;;;8.67;5.13;;;;;;;;;;5042727;28;20433;-68
2023/12/01 12:58:02;;;;;;;6.83;4.17;;;;;;;;;;5041562;28;20438;-68
2023/12/01 13:00:29;;;;;;;9.23;5.30;;;;;;;;;;5013537;28;20461;-67
2023/12/01 13:02:56;;;;;;;10.90;4.83;;;;;;;;;;5041669;28;20438;-69
2023/12/01 13:05:23;;;;;;;7.90;4.87;;;;;;;;;;5042202;28;20478;-68
2023/12/01 13:07:50;;;;;;;9.27;5.10;;;;;;;;;;5041424;28;20475;-68
2023/12/01 13:10:17;;;;;;;8.90;4.47;;;;;;;;;;5025207;28;20427;-68
2023/12/01 13:12:44;;;;;;;10.40;4.80;;;;;;;;;;5025077;28;20512;-68
2023/12/01 13:15:12;;;;;;;7.93;4.37;;;;;;;;;;5041723;28;20434;-68
2023/12/01 13:17:39;;;;;;;9.43;4.27;;;;;;;;;;5026496;28;20426;-68
2023/12/01 13:20:07;;;;;;;7.20;4.20;;;;;;;;;;5041035;28;20437;-67
2023/12/01 13:22:34;;;;;;;6.80;3.57;;;;;;;;;;5041586;28;20440;-69
2023/12/01 13:25:02;;;;;;;8.57;4.60;;;;;;;;;;5041705;28;20789;-69
2023/12/01 13:27:31;;;;;;;9.00;3.90;;;;;;;;;;5026746;28;20785;-70
2023/12/01 13:29:59;;;;;;;8.40;4.00;;;;;;;;;;5040820;28;20426;-69
2023/12/01 13:32:27;;;;;;;7.23;4.30;;;;;;;;;;5027262;28;20867;-69
2023/12/01 13:34:54;;;;;;;8.73;5.03;;;;;;;;;;5041321;28;20484;-69
2023/12/01 13:37:21;;;;;;;8.63;5.10;;;;;;;;;;5041833;28;20525;-70
2023/12/01 13:39:48;;;;;;;9.93;5.37;;;;;;;;;;5025634;28;20436;-70
2023/12/01 13:42:16;;;;;;;10.27;5.27;;;;;;;;;;5028148;28;20438;-69
2023/12/01 13:44:43;;;;;;;9.73;5.57;;;;;;;;;;5043459;28;20436;-69
2023/12/01 13:47:10;;;;;;;9.63;5.13;;;;;;;;;;5042414;28;20446;-70
2023/12/01 13:49:37;;;;;;;9.67;4.80;;;;;;;;;;5056835;28;20664;-69
2023/12/01 13:52:06;;;;;;;7.00;3.97;;;;;;;;;;5061249;28;20467;-69
2023/12/01 13:54:36;;;;;;;7.70;4.40;;;;;;;;;;5061103;28;20480;-69
2023/12/01 13:57:05;;;;;;;7.47;4.30;;;;;;;;;;5061452;28;20943;-69
2023/12/01 13:59:32;;;;;;;8.63;4.80;;;;;;;;;;5062596;28;20429;-69
2023/12/01 14:01:59;;;;;;;8.77;4.77;;;;;;;;;;5048879;28;21970;-70
2023/12/01 14:04:26;;;;;;;7.73;4.50;;;;;;;;;;5060819;28;20432;-69
2023/12/01 14:06:53;;;;;;;8.23;4.43;;;;;;;;;;5059797;28;20915;-70
2023/12/01 14:09:20;;;;;;;6.03;3.60;;;;;;;;;;5060314;28;20484;-69
2023/12/01 14:11:47;;;;;;;9.83;5.07;;;;;;;;;;5060503;28;20464;-68
2023/12/01 14:14:14;;;;;;;10.90;5.30;;;;;;;;;;5060915;28;20481;-69
2023/12/01 14:16:41;;;;;;;9.30;5.53;;;;;;;;;;5060374;28;20479;-70
2023/12/01 14:19:08;;;;;;;12.77;5.73;;;;;;;;;;5043639;28;20436;-69
2023/12/01 14:21:36;;;;;;;9.63;5.60;;;;;;;;;;5060836;28;20965;-70
2023/12/01 14:24:02;;;;;;;11.37;6.13;;;;;;;;;;5045409;28;20516;-70
2023/12/01 14:26:29;;;;;;;10.20;4.93;;;;;;;;;;5060824;28;20949;-67
2023/12/01 14:28:58;;;;;;;10.97;5.83;;;;;;;;;;5060039;28;20542;-68
2023/12/01 14:31:25;;;;;;;11.07;6.27;;;;;;;;;;5060187;28;20479;-68
2023/12/01 14:34:10;;;;;;;10.37;5.73;;;;;;;;;;5058753;28;20469;-67
2023/12/01 14:36:37;;;;;;;12.67;6.07;;;;;;;;;;5061723;28;20543;-68
2023/12/01 14:39:07;;;;;;;12.03;6.40;;;;;;;;;;5061485;28;20429;-68
2023/12/01 14:41:34;;;;;;;16.87;8.37;;;;;;;;;;5046130;28;20460;-69
2023/12/01 14:44:00;;;;;;;14.03;7.97;;;;;;;;;;5060894;28;20974;-69
2023/12/01 14:46:27;;;;;;;17.50;7.47;;;;;;;;;;5059991;28;20520;-69
2023/12/01 14:48:56;;;;;;;14.73;7.80;;;;;;;;;;5059656;28;20473;-68
2023/12/01 14:51:23;;;;;;;13.93;7.60;;;;;;;;;;5060733;28;20887;-69
2023/12/01 14:53:50;;;;;;;18.67;9.33;;;;;;;;;;5059785;28;20520;-69
2023/12/01 14:56:17;;;;;;;17.47;9.00;;;;;;;;;;5060027;28;20433;-69
2023/12/01 14:58:44;;;;;;;18.50;9.70;;;;;;;;;;5059262;28;20532;-68
2023/12/01 15:01:11;;;;;;;15.60;7.83;;;;;;;;;;5047742;28;20457;-68
2023/12/01 15:03:38;;;;;;;16.13;8.50;;;;;;;;;;5059721;28;20441;-68
2023/12/01 15:06:07;;;;;;;12.97;7.30;;;;;;;;;;5059460;28;20876;-70
2023/12/01 15:08:34;;;;;;;11.53;6.17;;;;;;;;;;5059294;28;20457;-69
2023/12/01 15:11:03;;;;;;;8.93;5.30;;;;;;;;;;5059106;28;20583;-70
2023/12/01 15:13:30;;;;;;;13.70;6.63;;;;;;;;;;5059378;28;20433;-69
2023/12/01 15:15:57;;;;;;;10.83;6.40;;;;;;;;;;5045538;28;20429;-68
2023/12/01 15:18:24;;;;;;;14.10;6.67;;;;;;;;;;5053302;28;20432;-68
2023/12/01 15:20:53;;;;;;;12.20;7.33;;;;;;;;;;5053634;28;20460;-68
2023/12/01 15:23:20;;;;;;;13.83;6.83;;;;;;;;;;5068680;28;20477;-68
2023/12/01 15:25:46;;;;;;;12.20;6.73;;;;;;;;;;5069018;28;20417;-68
2023/12/01 15:28:13;;;;;;;13.70;7.67;;;;;;;;;;5069125;28;20464;-68
2023/12/01 15:30:40;;;;;;;18.50;8.53;;;;;;;;;;5053632;28;20947;-70
2023/12/01 15:33:07;;;;;;;15.30;7.50;;;;;;;;;;5051912;28;20436;-68
2023/12/01 15:35:34;;;;;;;19.37;8.77;;;;;;;;;;5053144;28;20422;-68
2023/12/01 15:38:01;;;;;;;15.97;8.30;;;;;;;;;;5052943;28;20746;-68
2023/12/01 15:40:27;;;;;;;18.63;9.00;;;;;;;;;;5057789;28;20496;-61
2023/12/01 15:42:54;;;;;;;17.07;8.03;;;;;;;;;;5074670;28;20428;-68
2023/12/01 15:45:21;;;;;;;14.40;7.80;;;;;;;;;;5075544;28;20420;-68
2023/12/01 15:47:48;;;;;;;14.47;7.60;;;;;;;;;;5076400;28;21002;-68
2023/12/01 15:50:15;;;;;;;14.33;7.07;;;;;;;;;;5097000;28;20774;-68
2023/12/01 15:52:43;;;;;;;14.97;7.23;;;;;;;;;;5078222;28;20504;-69
2023/12/01 15:55:10;;;;;;;13.93;7.90;;;;;;;;;;5062131;28;20484;-67